Himyar, Kentucky
Current Conditions -  °F | °C
As of 5:53 AM on Friday 31 Oct 2014 (Local Time) from KLOZ Reporting Station
Light Rain Light Rain  
Wind Chill: 42°   Ceiling: 7500
Heat Index: 42°   Visibility: 10mi
Dew Point: 38°   Wind: 0mph
Humidity: 85%   Direction: NA
Pressure: 29.98"   Gusts: NA
Location:  36.865°N, 83.9507°W
Report Text: KLOZ 310953Z AUTO 00000KT 10SM -RA OVC075 06/03 A2998 RMK AO2 RAB28 SLP152 P0000 T00560033
Loading
Personal Weather Stations






























Interactive Weather Map
Tropical Storm Tracking
New forecast layout! Learn more

10-Day Weather Forecast

Advertisements
Track Severe Weather on mobile